sensor_id;sensor_type;location;lat;lon;timestamp;P1;durP1;ratioP1;P2;durP2;ratioP2
4810;SDS011;2419;51.276;6.472;2024-03-29T00:00:10;5.80;;;1.30;;
4810;SDS011;2419;51.276;6.472;2024-03-29T00:02:40;5.53;;;1.83;;
4810;SDS011;2419;51.276;6.472;2024-03-29T00:05:06;2.60;;;1.00;;
4810;SDS011;2419;51.276;6.472;2024-03-29T00:07:33;5.43;;;1.00;;
4810;SDS011;2419;51.276;6.472;2024-03-29T00:09:59;4.17;;;1.37;;
4810;SDS011;2419;51.276;6.472;2024-03-29T00:12:26;2.53;;;1.17;;
4810;SDS011;2419;51.276;6.472;2024-03-29T00:14:53;1.30;;;0.97;;
4810;SDS011;2419;51.276;6.472;2024-03-29T00:17:19;5.77;;;1.10;;
4810;SDS011;2419;51.276;6.472;2024-03-29T00:19:45;4.07;;;0.80;;
4810;SDS011;2419;51.276;6.472;2024-03-29T00:22:11;2.87;;;1.07;;
4810;SDS011;2419;51.276;6.472;2024-03-29T00:24:37;2.63;;;1.07;;
4810;SDS011;2419;51.276;6.472;2024-03-29T00:27:03;1.77;;;0.70;;
4810;SDS011;2419;51.276;6.472;2024-03-29T00:29:31;3.77;;;1.10;;
4810;SDS011;2419;51.276;6.472;2024-03-29T00:31:58;3.23;;;1.20;;
4810;SDS011;2419;51.276;6.472;2024-03-29T00:34:24;1.53;;;0.93;;
4810;SDS011;2419;51.276;6.472;2024-03-29T00:36:50;2.33;;;1.27;;
4810;SDS011;2419;51.276;6.472;2024-03-29T00:39:16;1.17;;;0.90;;
4810;SDS011;2419;51.276;6.472;2024-03-29T00:41:42;2.60;;;0.80;;
4810;SDS011;2419;51.276;6.472;2024-03-29T00:44:09;4.83;;;1.07;;
4810;SDS011;2419;51.276;6.472;2024-03-29T00:46:36;1.47;;;0.93;;
4810;SDS011;2419;51.276;6.472;2024-03-29T00:49:02;1.00;;;0.70;;
4810;SDS011;2419;51.276;6.472;2024-03-29T00:51:28;2.80;;;1.23;;
4810;SDS011;2419;51.276;6.472;2024-03-29T00:53:55;2.13;;;1.00;;
4810;SDS011;2419;51.276;6.472;2024-03-29T00:56:21;5.73;;;1.20;;
4810;SDS011;2419;51.276;6.472;2024-03-29T00:58:47;1.60;;;1.10;;
4810;SDS011;2419;51.276;6.472;2024-03-29T01:01:13;1.83;;;1.30;;
4810;SDS011;2419;51.276;6.472;2024-03-29T01:03:41;1.97;;;0.90;;
4810;SDS011;2419;51.276;6.472;2024-03-29T01:06:07;3.27;;;1.47;;
4810;SDS011;2419;51.276;6.472;2024-03-29T01:08:33;5.80;;;1.27;;
4810;SDS011;2419;51.276;6.472;2024-03-29T01:10:59;4.37;;;1.33;;
4810;SDS011;2419;51.276;6.472;2024-03-29T01:13:25;14.53;;;1.33;;
4810;SDS011;2419;51.276;6.472;2024-03-29T01:15:52;2.73;;;1.20;;
4810;SDS011;2419;51.276;6.472;2024-03-29T01:18:18;5.50;;;1.20;;
4810;SDS011;2419;51.276;6.472;2024-03-29T01:20:45;3.90;;;1.33;;
4810;SDS011;2419;51.276;6.472;2024-03-29T01:23:11;2.40;;;1.33;;
4810;SDS011;2419;51.276;6.472;2024-03-29T01:25:38;2.80;;;1.30;;
4810;SDS011;2419;51.276;6.472;2024-03-29T01:28:04;5.27;;;1.10;;
4810;SDS011;2419;51.276;6.472;2024-03-29T01:30:30;5.00;;;1.10;;
4810;SDS011;2419;51.276;6.472;2024-03-29T01:32:57;4.13;;;0.97;;
4810;SDS011;2419;51.276;6.472;2024-03-29T01:35:23;4.70;;;1.23;;
4810;SDS011;2419;51.276;6.472;2024-03-29T01:37:50;2.43;;;1.13;;
4810;SDS011;2419;51.276;6.472;2024-03-29T01:40:17;2.80;;;1.00;;
4810;SDS011;2419;51.276;6.472;2024-03-29T01:42:43;4.10;;;1.70;;
4810;SDS011;2419;51.276;6.472;2024-03-29T01:45:09;3.40;;;1.20;;
4810;SDS011;2419;51.276;6.472;2024-03-29T01:47:36;9.67;;;1.33;;
4810;SDS011;2419;51.276;6.472;2024-03-29T01:50:04;3.63;;;1.43;;
4810;SDS011;2419;51.276;6.472;2024-03-29T01:52:32;2.57;;;1.10;;
4810;SDS011;2419;51.276;6.472;2024-03-29T01:55:00;1.03;;;0.93;;
4810;SDS011;2419;51.276;6.472;2024-03-29T01:57:27;7.43;;;1.70;;
4810;SDS011;2419;51.276;6.472;2024-03-29T01:59:55;1.53;;;1.20;;
4810;SDS011;2419;51.276;6.472;2024-03-29T02:02:23;1.67;;;1.23;;
4810;SDS011;2419;51.276;6.472;2024-03-29T02:04:50;1.13;;;1.00;;
4810;SDS011;2419;51.276;6.472;2024-03-29T02:07:18;1.43;;;0.90;;
4810;SDS011;2419;51.276;6.472;2024-03-29T02:09:45;1.33;;;1.00;;
4810;SDS011;2419;51.276;6.472;2024-03-29T02:12:14;1.10;;;0.90;;
4810;SDS011;2419;51.276;6.472;2024-03-29T02:14:41;1.40;;;1.10;;
4810;SDS011;2419;51.276;6.472;2024-03-29T02:17:08;3.07;;;1.27;;
4810;SDS011;2419;51.276;6.472;2024-03-29T02:19:35;3.57;;;1.00;;
4810;SDS011;2419;51.276;6.472;2024-03-29T02:22:02;4.97;;;1.77;;
4810;SDS011;2419;51.276;6.472;2024-03-29T02:24:33;2.60;;;1.00;;
4810;SDS011;2419;51.276;6.472;2024-03-29T02:27:00;1.00;;;0.80;;
4810;SDS011;2419;51.276;6.472;2024-03-29T02:29:29;1.77;;;1.00;;
4810;SDS011;2419;51.276;6.472;2024-03-29T02:31:56;2.50;;;1.10;;
4810;SDS011;2419;51.276;6.472;2024-03-29T02:34:24;2.03;;;0.93;;
4810;SDS011;2419;51.276;6.472;2024-03-29T02:36:51;1.00;;;0.90;;
4810;SDS011;2419;51.276;6.472;2024-03-29T02:39:18;3.50;;;1.30;;
4810;SDS011;2419;51.276;6.472;2024-03-29T02:41:46;2.60;;;0.80;;
4810;SDS011;2419;51.276;6.472;2024-03-29T02:44:13;1.43;;;0.97;;
4810;SDS011;2419;51.276;6.472;2024-03-29T02:46:41;2.90;;;0.90;;
4810;SDS011;2419;51.276;6.472;2024-03-29T02:49:08;4.90;;;0.93;;
4810;SDS011;2419;51.276;6.472;2024-03-29T02:51:34;6.13;;;1.90;;
4810;SDS011;2419;51.276;6.472;2024-03-29T02:54:02;2.83;;;1.60;;
4810;SDS011;2419;51.276;6.472;2024-03-29T02:56:29;3.07;;;1.27;;
4810;SDS011;2419;51.276;6.472;2024-03-29T02:58:57;1.30;;;1.00;;
4810;SDS011;2419;51.276;6.472;2024-03-29T03:01:25;1.43;;;0.93;;
4810;SDS011;2419;51.276;6.472;2024-03-29T03:03:51;2.50;;;0.90;;
4810;SDS011;2419;51.276;6.472;2024-03-29T03:06:18;3.37;;;1.20;;
4810;SDS011;2419;51.276;6.472;2024-03-29T03:08:44;1.40;;;1.30;;
4810;SDS011;2419;51.276;6.472;2024-03-29T03:11:28;2.70;;;1.40;;
4810;SDS011;2419;51.276;6.472;2024-03-29T03:13:57;8.00;;;1.10;;
4810;SDS011;2419;51.276;6.472;2024-03-29T03:16:23;2.83;;;1.10;;
4810;SDS011;2419;51.276;6.472;2024-03-29T03:18:50;2.07;;;1.20;;
4810;SDS011;2419;51.276;6.472;2024-03-29T03:21:16;3.70;;;1.13;;
4810;SDS011;2419;51.276;6.472;2024-03-29T03:23:43;3.63;;;1.50;;
4810;SDS011;2419;51.276;6.472;2024-03-29T03:26:10;2.50;;;1.13;;
4810;SDS011;2419;51.276;6.472;2024-03-29T03:28:36;1.57;;;0.90;;
4810;SDS011;2419;51.276;6.472;2024-03-29T03:31:05;3.30;;;1.20;;
4810;SDS011;2419;51.276;6.472;2024-03-29T03:33:32;1.23;;;0.87;;
4810;SDS011;2419;51.276;6.472;2024-03-29T03:35:59;2.87;;;1.50;;
4810;SDS011;2419;51.276;6.472;2024-03-29T03:38:25;3.13;;;1.13;;
4810;SDS011;2419;51.276;6.472;2024-03-29T03:40:53;1.63;;;1.00;;
4810;SDS011;2419;51.276;6.472;2024-03-29T03:43:19;1.87;;;1.40;;
4810;SDS011;2419;51.276;6.472;2024-03-29T03:45:46;2.30;;;1.20;;
4810;SDS011;2419;51.276;6.472;2024-03-29T03:48:14;5.13;;;1.17;;
4810;SDS011;2419;51.276;6.472;2024-03-29T03:50:41;3.57;;;1.20;;
4810;SDS011;2419;51.276;6.472;2024-03-29T03:53:07;8.80;;;1.20;;
4810;SDS011;2419;51.276;6.472;2024-03-29T03:55:35;8.83;;;1.20;;
4810;SDS011;2419;51.276;6.472;2024-03-29T03:58:02;2.63;;;0.97;;
4810;SDS011;2419;51.276;6.472;2024-03-29T04:00:29;1.97;;;1.00;;
4810;SDS011;2419;51.276;6.472;2024-03-29T04:02:55;2.70;;;1.20;;
4810;SDS011;2419;51.276;6.472;2024-03-29T04:05:24;1.30;;;1.10;;
4810;SDS011;2419;51.276;6.472;2024-03-29T04:07:51;4.73;;;1.10;;
4810;SDS011;2419;51.276;6.472;2024-03-29T04:10:18;1.27;;;0.80;;
4810;SDS011;2419;51.276;6.472;2024-03-29T04:12:44;1.00;;;0.90;;
4810;SDS011;2419;51.276;6.472;2024-03-29T04:15:11;2.70;;;1.33;;
4810;SDS011;2419;51.276;6.472;2024-03-29T04:17:37;1.97;;;1.13;;
4810;SDS011;2419;51.276;6.472;2024-03-29T04:20:05;3.10;;;0.87;;
4810;SDS011;2419;51.276;6.472;2024-03-29T04:22:33;3.43;;;1.00;;
4810;SDS011;2419;51.276;6.472;2024-03-29T04:25:00;1.57;;;1.00;;
4810;SDS011;2419;51.276;6.472;2024-03-29T04:27:26;7.60;;;1.63;;
4810;SDS011;2419;51.276;6.472;2024-03-29T04:29:53;2.60;;;1.33;;
4810;SDS011;2419;51.276;6.472;2024-03-29T04:32:20;2.70;;;1.33;;
4810;SDS011;2419;51.276;6.472;2024-03-29T04:34:47;5.33;;;0.90;;
4810;SDS011;2419;51.276;6.472;2024-03-29T04:37:14;4.17;;;1.63;;
4810;SDS011;2419;51.276;6.472;2024-03-29T04:39:43;0.87;;;0.87;;
4810;SDS011;2419;51.276;6.472;2024-03-29T04:42:11;1.30;;;0.90;;
4810;SDS011;2419;51.276;6.472;2024-03-29T04:44:40;0.90;;;0.90;;
4810;SDS011;2419;51.276;6.472;2024-03-29T04:47:07;3.33;;;1.13;;
4810;SDS011;2419;51.276;6.472;2024-03-29T04:49:34;3.03;;;1.20;;
4810;SDS011;2419;51.276;6.472;2024-03-29T04:52:02;1.30;;;1.20;;
4810;SDS011;2419;51.276;6.472;2024-03-29T04:54:29;1.97;;;1.10;;
4810;SDS011;2419;51.276;6.472;2024-03-29T04:56:58;1.40;;;1.10;;
4810;SDS011;2419;51.276;6.472;2024-03-29T04:59:27;3.07;;;1.27;;
4810;SDS011;2419;51.276;6.472;2024-03-29T05:01:54;2.50;;;0.97;;
4810;SDS011;2419;51.276;6.472;2024-03-29T05:04:22;2.33;;;0.90;;
4810;SDS011;2419;51.276;6.472;2024-03-29T05:06:51;1.00;;;0.97;;
4810;SDS011;2419;51.276;6.472;2024-03-29T05:09:19;2.23;;;1.17;;
4810;SDS011;2419;51.276;6.472;2024-03-29T05:11:46;1.63;;;1.00;;
4810;SDS011;2419;51.276;6.472;2024-03-29T05:14:15;4.67;;;1.43;;
4810;SDS011;2419;51.276;6.472;2024-03-29T05:16:44;1.27;;;0.87;;
4810;SDS011;2419;51.276;6.472;2024-03-29T05:19:12;2.70;;;1.10;;
4810;SDS011;2419;51.276;6.472;2024-03-29T05:21:40;2.77;;;1.07;;
4810;SDS011;2419;51.276;6.472;2024-03-29T05:24:07;1.50;;;1.10;;
4810;SDS011;2419;51.276;6.472;2024-03-29T05:26:34;1.70;;;1.10;;
4810;SDS011;2419;51.276;6.472;2024-03-29T05:29:02;1.00;;;0.90;;
4810;SDS011;2419;51.276;6.472;2024-03-29T05:31:31;9.90;;;1.47;;
4810;SDS011;2419;51.276;6.472;2024-03-29T05:33:58;3.50;;;1.17;;
4810;SDS011;2419;51.276;6.472;2024-03-29T05:36:27;0.87;;;0.87;;
4810;SDS011;2419;51.276;6.472;2024-03-29T05:38:54;1.47;;;1.00;;
4810;SDS011;2419;51.276;6.472;2024-03-29T05:41:21;2.70;;;1.57;;
4810;SDS011;2419;51.276;6.472;2024-03-29T05:43:48;2.67;;;1.23;;
4810;SDS011;2419;51.276;6.472;2024-03-29T05:46:16;1.10;;;1.00;;
4810;SDS011;2419;51.276;6.472;2024-03-29T05:48:45;2.80;;;1.13;;
4810;SDS011;2419;51.276;6.472;2024-03-29T05:51:12;3.03;;;1.23;;
4810;SDS011;2419;51.276;6.472;2024-03-29T05:53:39;3.60;;;1.57;;
4810;SDS011;2419;51.276;6.472;2024-03-29T05:56:06;5.10;;;1.47;;
4810;SDS011;2419;51.276;6.472;2024-03-29T05:58:34;4.53;;;1.17;;
4810;SDS011;2419;51.276;6.472;2024-03-29T06:01:01;4.70;;;1.40;;
4810;SDS011;2419;51.276;6.472;2024-03-29T06:03:28;5.17;;;1.83;;
4810;SDS011;2419;51.276;6.472;2024-03-29T06:05:57;1.63;;;1.00;;
4810;SDS011;2419;51.276;6.472;2024-03-29T06:08:24;1.13;;;1.03;;
4810;SDS011;2419;51.276;6.472;2024-03-29T06:10:52;1.70;;;1.10;;
4810;SDS011;2419;51.276;6.472;2024-03-29T06:13:19;1.87;;;0.90;;
4810;SDS011;2419;51.276;6.472;2024-03-29T06:16:16;3.97;;;1.70;;
4810;SDS011;2419;51.276;6.472;2024-03-29T06:19:01;2.50;;;1.13;;
4810;SDS011;2419;51.276;6.472;2024-03-29T06:21:30;1.77;;;1.10;;
4810;SDS011;2419;51.276;6.472;2024-03-29T06:24:04;1.50;;;1.03;;
4810;SDS011;2419;51.276;6.472;2024-03-29T06:26:32;2.30;;;1.10;;
4810;SDS011;2419;51.276;6.472;2024-03-29T06:28:59;1.47;;;1.00;;
4810;SDS011;2419;51.276;6.472;2024-03-29T06:31:26;3.37;;;1.80;;
4810;SDS011;2419;51.276;6.472;2024-03-29T06:33:54;3.37;;;1.10;;
4810;SDS011;2419;51.276;6.472;2024-03-29T06:36:21;10.20;;;1.60;;
4810;SDS011;2419;51.276;6.472;2024-03-29T06:38:50;2.87;;;1.33;;
4810;SDS011;2419;51.276;6.472;2024-03-29T06:41:17;4.30;;;1.40;;
4810;SDS011;2419;51.276;6.472;2024-03-29T06:43:44;6.03;;;1.50;;
4810;SDS011;2419;51.276;6.472;2024-03-29T06:46:11;5.70;;;1.70;;
4810;SDS011;2419;51.276;6.472;2024-03-29T06:48:39;3.00;;;1.40;;
4810;SDS011;2419;51.276;6.472;2024-03-29T06:51:06;3.63;;;1.50;;
4810;SDS011;2419;51.276;6.472;2024-03-29T06:53:33;2.07;;;1.20;;
4810;SDS011;2419;51.276;6.472;2024-03-29T06:56:03;6.13;;;1.67;;
4810;SDS011;2419;51.276;6.472;2024-03-29T06:58:30;3.03;;;1.60;;
4810;SDS011;2419;51.276;6.472;2024-03-29T07:00:58;2.13;;;1.33;;
4810;SDS011;2419;51.276;6.472;2024-03-29T07:03:25;1.90;;;1.33;;
4810;SDS011;2419;51.276;6.472;2024-03-29T07:05:52;4.33;;;1.43;;
4810;SDS011;2419;51.276;6.472;2024-03-29T07:08:19;3.50;;;1.70;;
4810;SDS011;2419;51.276;6.472;2024-03-29T07:10:46;5.10;;;1.77;;
4810;SDS011;2419;51.276;6.472;2024-03-29T07:13:14;5.60;;;2.03;;
4810;SDS011;2419;51.276;6.472;2024-03-29T07:15:50;2.83;;;1.40;;
4810;SDS011;2419;51.276;6.472;2024-03-29T07:18:17;4.73;;;1.63;;
4810;SDS011;2419;51.276;6.472;2024-03-29T07:20:44;4.03;;;1.30;;
4810;SDS011;2419;51.276;6.472;2024-03-29T07:23:11;5.10;;;1.77;;
4810;SDS011;2419;51.276;6.472;2024-03-29T07:25:39;2.83;;;1.60;;
4810;SDS011;2419;51.276;6.472;2024-03-29T07:28:07;5.87;;;1.60;;
4810;SDS011;2419;51.276;6.472;2024-03-29T07:30:36;7.03;;;1.73;;
4810;SDS011;2419;51.276;6.472;2024-03-29T07:33:04;4.00;;;1.73;;
4810;SDS011;2419;51.276;6.472;2024-03-29T07:35:31;2.17;;;1.30;;
4810;SDS011;2419;51.276;6.472;2024-03-29T07:37:58;6.30;;;1.87;;
4810;SDS011;2419;51.276;6.472;2024-03-29T07:40:25;2.50;;;1.43;;
4810;SDS011;2419;51.276;6.472;2024-03-29T07:42:52;2.80;;;1.50;;
4810;SDS011;2419;51.276;6.472;2024-03-29T07:45:20;5.13;;;1.40;;
4810;SDS011;2419;51.276;6.472;2024-03-29T07:47:49;5.83;;;1.70;;
4810;SDS011;2419;51.276;6.472;2024-03-29T07:50:18;4.30;;;1.77;;
4810;SDS011;2419;51.276;6.472;2024-03-29T07:52:45;2.80;;;1.60;;
4810;SDS011;2419;51.276;6.472;2024-03-29T07:55:12;3.00;;;1.90;;
4810;SDS011;2419;51.276;6.472;2024-03-29T07:57:39;4.13;;;1.90;;
4810;SDS011;2419;51.276;6.472;2024-03-29T08:00:07;3.20;;;1.53;;
4810;SDS011;2419;51.276;6.472;2024-03-29T08:02:34;7.97;;;1.83;;
4810;SDS011;2419;51.276;6.472;2024-03-29T08:05:02;11.93;;;1.93;;
4810;SDS011;2419;51.276;6.472;2024-03-29T08:07:31;3.33;;;1.80;;
4810;SDS011;2419;51.276;6.472;2024-03-29T08:09:58;4.80;;;1.60;;
4810;SDS011;2419;51.276;6.472;2024-03-29T08:12:25;2.73;;;1.53;;
4810;SDS011;2419;51.276;6.472;2024-03-29T08:14:52;5.40;;;1.57;;
4810;SDS011;2419;51.276;6.472;2024-03-29T08:17:19;4.70;;;1.77;;
4810;SDS011;2419;51.276;6.472;2024-03-29T08:19:46;2.87;;;1.80;;
4810;SDS011;2419;51.276;6.472;2024-03-29T08:22:15;4.70;;;1.63;;
4810;SDS011;2419;51.276;6.472;2024-03-29T08:24:42;2.53;;;1.70;;
4810;SDS011;2419;51.276;6.472;2024-03-29T08:27:10;1.70;;;1.47;;
4810;SDS011;2419;51.276;6.472;2024-03-29T08:29:37;6.37;;;2.03;;
4810;SDS011;2419;51.276;6.472;2024-03-29T08:32:04;2.30;;;1.50;;
4810;SDS011;2419;51.276;6.472;2024-03-29T08:34:32;2.90;;;1.40;;
4810;SDS011;2419;51.276;6.472;2024-03-29T08:37:00;2.30;;;1.63;;
4810;SDS011;2419;51.276;6.472;2024-03-29T08:39:29;1.80;;;1.40;;
4810;SDS011;2419;51.276;6.472;2024-03-29T08:41:57;5.70;;;1.50;;
4810;SDS011;2419;51.276;6.472;2024-03-29T08:44:24;2.40;;;1.43;;
4810;SDS011;2419;51.276;6.472;2024-03-29T08:46:51;3.50;;;2.17;;
4810;SDS011;2419;51.276;6.472;2024-03-29T08:49:20;3.97;;;2.57;;
4810;SDS011;2419;51.276;6.472;2024-03-29T08:51:47;3.17;;;2.10;;
4810;SDS011;2419;51.276;6.472;2024-03-29T08:54:14;2.10;;;1.33;;
4810;SDS011;2419;51.276;6.472;2024-03-29T08:56:43;1.50;;;1.40;;
4810;SDS011;2419;51.276;6.472;2024-03-29T08:59:10;1.77;;;1.33;;
4810;SDS011;2419;51.276;6.472;2024-03-29T09:01:40;3.10;;;1.67;;
4810;SDS011;2419;51.276;6.472;2024-03-29T09:04:08;2.93;;;1.50;;
4810;SDS011;2419;51.276;6.472;2024-03-29T09:06:36;2.50;;;1.40;;
4810;SDS011;2419;51.276;6.472;2024-03-29T09:09:04;3.43;;;1.73;;
4810;SDS011;2419;51.276;6.472;2024-03-29T09:11:31;3.60;;;1.67;;
4810;SDS011;2419;51.276;6.472;2024-03-29T09:13:59;2.77;;;1.97;;
4810;SDS011;2419;51.276;6.472;2024-03-29T09:16:28;2.53;;;2.23;;
4810;SDS011;2419;51.276;6.472;2024-03-29T09:18:55;3.23;;;2.20;;
4810;SDS011;2419;51.276;6.472;2024-03-29T09:21:23;1.93;;;1.37;;
4810;SDS011;2419;51.276;6.472;2024-03-29T09:23:50;2.43;;;1.43;;
4810;SDS011;2419;51.276;6.472;2024-03-29T09:26:18;3.67;;;1.77;;
4810;SDS011;2419;51.276;6.472;2024-03-29T09:28:45;1.63;;;1.40;;
4810;SDS011;2419;51.276;6.472;2024-03-29T09:31:14;2.70;;;1.60;;
4810;SDS011;2419;51.276;6.472;2024-03-29T09:33:41;1.23;;;1.13;;
4810;SDS011;2419;51.276;6.472;2024-03-29T09:36:08;2.20;;;1.40;;
4810;SDS011;2419;51.276;6.472;2024-03-29T09:38:36;2.27;;;1.30;;
4810;SDS011;2419;51.276;6.472;2024-03-29T09:41:05;1.50;;;1.20;;
4810;SDS011;2419;51.276;6.472;2024-03-29T09:43:39;2.17;;;1.40;;
4810;SDS011;2419;51.276;6.472;2024-03-29T09:46:10;1.93;;;1.20;;
4810;SDS011;2419;51.276;6.472;2024-03-29T09:48:39;1.70;;;1.40;;
4810;SDS011;2419;51.276;6.472;2024-03-29T09:51:08;3.27;;;1.53;;
4810;SDS011;2419;51.276;6.472;2024-03-29T09:53:40;1.87;;;1.17;;
4810;SDS011;2419;51.276;6.472;2024-03-29T09:56:08;1.93;;;1.60;;
4810;SDS011;2419;51.276;6.472;2024-03-29T09:58:37;1.10;;;1.00;;
4810;SDS011;2419;51.276;6.472;2024-03-29T10:01:05;4.93;;;1.27;;
4810;SDS011;2419;51.276;6.472;2024-03-29T10:03:36;3.57;;;1.10;;
4810;SDS011;2419;51.276;6.472;2024-03-29T10:06:07;2.30;;;1.17;;
4810;SDS011;2419;51.276;6.472;2024-03-29T10:08:35;1.83;;;1.23;;
4810;SDS011;2419;51.276;6.472;2024-03-29T10:11:02;4.43;;;1.23;;
4810;SDS011;2419;51.276;6.472;2024-03-29T10:13:30;1.93;;;1.30;;
4810;SDS011;2419;51.276;6.472;2024-03-29T10:15:57;1.43;;;1.07;;
4810;SDS011;2419;51.276;6.472;2024-03-29T10:18:28;1.00;;;1.00;;
4810;SDS011;2419;51.276;6.472;2024-03-29T10:21:01;2.13;;;0.97;;
4810;SDS011;2419;51.276;6.472;2024-03-29T10:23:30;1.50;;;1.40;;
4810;SDS011;2419;51.276;6.472;2024-03-29T10:25:58;1.77;;;1.43;;
4810;SDS011;2419;51.276;6.472;2024-03-29T10:28:27;6.00;;;1.30;;
4810;SDS011;2419;51.276;6.472;2024-03-29T10:30:56;1.50;;;1.20;;
4810;SDS011;2419;51.276;6.472;2024-03-29T10:33:27;1.57;;;1.07;;
4810;SDS011;2419;51.276;6.472;2024-03-29T10:35:55;3.47;;;1.20;;
4810;SDS011;2419;51.276;6.472;2024-03-29T10:38:25;1.70;;;1.40;;
4810;SDS011;2419;51.276;6.472;2024-03-29T10:40:53;1.33;;;1.10;;
4810;SDS011;2419;51.276;6.472;2024-03-29T10:43:20;4.37;;;1.40;;
4810;SDS011;2419;51.276;6.472;2024-03-29T10:45:48;2.13;;;1.10;;
4810;SDS011;2419;51.276;6.472;2024-03-29T10:48:16;1.30;;;1.20;;
4810;SDS011;2419;51.276;6.472;2024-03-29T10:50:44;2.10;;;1.13;;
4810;SDS011;2419;51.276;6.472;2024-03-29T10:53:13;1.10;;;1.00;;
4810;SDS011;2419;51.276;6.472;2024-03-29T10:55:43;2.90;;;1.13;;
4810;SDS011;2419;51.276;6.472;2024-03-29T10:58:11;2.50;;;1.13;;
4810;SDS011;2419;51.276;6.472;2024-03-29T11:00:41;1.47;;;1.10;;
4810;SDS011;2419;51.276;6.472;2024-03-29T11:03:14;3.03;;;1.10;;
4810;SDS011;2419;51.276;6.472;2024-03-29T11:05:46;1.20;;;1.10;;
4810;SDS011;2419;51.276;6.472;2024-03-29T11:08:16;0.80;;;0.80;;
4810;SDS011;2419;51.276;6.472;2024-03-29T11:10:49;1.07;;;0.90;;
4810;SDS011;2419;51.276;6.472;2024-03-29T11:13:19;1.27;;;0.93;;
4810;SDS011;2419;51.276;6.472;2024-03-29T11:15:53;1.40;;;0.90;;
4810;SDS011;2419;51.276;6.472;2024-03-29T11:18:20;1.53;;;0.90;;
4810;SDS011;2419;51.276;6.472;2024-03-29T11:20:52;1.07;;;0.97;;
4810;SDS011;2419;51.276;6.472;2024-03-29T11:23:21;2.07;;;0.90;;
4810;SDS011;2419;51.276;6.472;2024-03-29T11:25:50;1.53;;;1.00;;
4810;SDS011;2419;51.276;6.472;2024-03-29T11:28:23;2.83;;;1.03;;
4810;SDS011;2419;51.276;6.472;2024-03-29T11:30:52;1.87;;;1.00;;
4810;SDS011;2419;51.276;6.472;2024-03-29T11:33:26;1.10;;;0.90;;
4810;SDS011;2419;51.276;6.472;2024-03-29T11:35:54;1.47;;;0.90;;
4810;SDS011;2419;51.276;6.472;2024-03-29T11:38:21;2.70;;;1.00;;
4810;SDS011;2419;51.276;6.472;2024-03-29T11:41:01;0.97;;;0.90;;
4810;SDS011;2419;51.276;6.472;2024-03-29T11:43:29;1.23;;;0.90;;
4810;SDS011;2419;51.276;6.472;2024-03-29T11:45:57;2.30;;;1.10;;
4810;SDS011;2419;51.276;6.472;2024-03-29T11:48:28;1.17;;;1.03;;
4810;SDS011;2419;51.276;6.472;2024-03-29T11:50:57;1.13;;;0.93;;
4810;SDS011;2419;51.276;6.472;2024-03-29T11:53:25;1.93;;;0.83;;
4810;SDS011;2419;51.276;6.472;2024-03-29T11:55:53;1.33;;;0.97;;
4810;SDS011;2419;51.276;6.472;2024-03-29T11:58:22;2.30;;;0.90;;
4810;SDS011;2419;51.276;6.472;2024-03-29T12:00:50;5.10;;;1.00;;
4810;SDS011;2419;51.276;6.472;2024-03-29T12:03:18;0.97;;;0.90;;
4810;SDS011;2419;51.276;6.472;2024-03-29T12:05:47;1.10;;;1.00;;
4810;SDS011;2419;51.276;6.472;2024-03-29T12:08:15;2.20;;;1.00;;
4810;SDS011;2419;51.276;6.472;2024-03-29T12:10:43;0.90;;;0.90;;
4810;SDS011;2419;51.276;6.472;2024-03-29T12:13:10;1.90;;;0.93;;
4810;SDS011;2419;51.276;6.472;2024-03-29T12:15:38;1.83;;;0.80;;
4810;SDS011;2419;51.276;6.472;2024-03-29T12:18:06;1.30;;;0.80;;
4810;SDS011;2419;51.276;6.472;2024-03-29T12:20:34;0.90;;;0.80;;
4810;SDS011;2419;51.276;6.472;2024-03-29T12:23:02;1.80;;;1.00;;
4810;SDS011;2419;51.276;6.472;2024-03-29T12:25:32;1.03;;;0.80;;
4810;SDS011;2419;51.276;6.472;2024-03-29T12:28:00;2.00;;;0.83;;
4810;SDS011;2419;51.276;6.472;2024-03-29T12:30:27;1.50;;;1.00;;
4810;SDS011;2419;51.276;6.472;2024-03-29T12:33:03;1.20;;;0.80;;
4810;SDS011;2419;51.276;6.472;2024-03-29T12:35:31;2.70;;;0.80;;
4810;SDS011;2419;51.276;6.472;2024-03-29T12:38:00;2.60;;;1.00;;
4810;SDS011;2419;51.276;6.472;2024-03-29T12:40:30;1.10;;;1.00;;
4810;SDS011;2419;51.276;6.472;2024-03-29T12:43:02;1.17;;;0.90;;
4810;SDS011;2419;51.276;6.472;2024-03-29T12:45:30;1.40;;;0.80;;
4810;SDS011;2419;51.276;6.472;2024-03-29T12:47:58;2.50;;;0.90;;
4810;SDS011;2419;51.276;6.472;2024-03-29T12:50:27;5.70;;;0.93;;
4810;SDS011;2419;51.276;6.472;2024-03-29T12:52:57;2.17;;;0.90;;
4810;SDS011;2419;51.276;6.472;2024-03-29T12:55:25;0.93;;;0.83;;
4810;SDS011;2419;51.276;6.472;2024-03-29T12:57:55;4.07;;;0.90;;
4810;SDS011;2419;51.276;6.472;2024-03-29T13:00:25;1.43;;;0.97;;
4810;SDS011;2419;51.276;6.472;2024-03-29T13:02:53;0.80;;;0.80;;
4810;SDS011;2419;51.276;6.472;2024-03-29T13:05:20;0.80;;;0.80;;
4810;SDS011;2419;51.276;6.472;2024-03-29T13:07:49;1.37;;;0.93;;
4810;SDS011;2419;51.276;6.472;2024-03-29T13:10:16;2.03;;;1.00;;
4810;SDS011;2419;51.276;6.472;2024-03-29T13:12:46;1.43;;;0.83;;
4810;SDS011;2419;51.276;6.472;2024-03-29T13:15:16;1.23;;;0.80;;
4810;SDS011;2419;51.276;6.472;2024-03-29T13:17:44;1.73;;;0.97;;
4810;SDS011;2419;51.276;6.472;2024-03-29T13:20:13;1.20;;;0.90;;
4810;SDS011;2419;51.276;6.472;2024-03-29T13:22:41;2.30;;;0.93;;
4810;SDS011;2419;51.276;6.472;2024-03-29T13:25:12;2.23;;;0.80;;
4810;SDS011;2419;51.276;6.472;2024-03-29T13:27:40;1.03;;;0.80;;
4810;SDS011;2419;51.276;6.472;2024-03-29T13:30:08;1.67;;;0.83;;
4810;SDS011;2419;51.276;6.472;2024-03-29T13:32:37;1.80;;;1.00;;
4810;SDS011;2419;51.276;6.472;2024-03-29T13:35:06;1.97;;;0.90;;
4810;SDS011;2419;51.276;6.472;2024-03-29T13:37:36;1.20;;;0.80;;
4810;SDS011;2419;51.276;6.472;2024-03-29T13:40:04;1.10;;;0.80;;
4810;SDS011;2419;51.276;6.472;2024-03-29T13:42:34;1.00;;;0.80;;
4810;SDS011;2419;51.276;6.472;2024-03-29T13:45:01;2.23;;;1.00;;
4810;SDS011;2419;51.276;6.472;2024-03-29T13:47:29;3.03;;;0.97;;
4810;SDS011;2419;51.276;6.472;2024-03-29T13:49:56;1.20;;;0.90;;
4810;SDS011;2419;51.276;6.472;2024-03-29T13:52:22;2.17;;;0.90;;
4810;SDS011;2419;51.276;6.472;2024-03-29T13:54:49;0.90;;;0.80;;
4810;SDS011;2419;51.276;6.472;2024-03-29T13:57:16;0.97;;;0.90;;
4810;SDS011;2419;51.276;6.472;2024-03-29T13:59:45;1.60;;;0.80;;
4810;SDS011;2419;51.276;6.472;2024-03-29T14:02:13;2.20;;;0.80;;
4810;SDS011;2419;51.276;6.472;2024-03-29T14:04:41;0.80;;;0.80;;
4810;SDS011;2419;51.276;6.472;2024-03-29T14:07:09;0.70;;;0.70;;
4810;SDS011;2419;51.276;6.472;2024-03-29T14:09:39;1.97;;;0.77;;
4810;SDS011;2419;51.276;6.472;2024-03-29T14:12:06;0.93;;;0.77;;
4810;SDS011;2419;51.276;6.472;2024-03-29T14:14:34;3.47;;;0.90;;
4810;SDS011;2419;51.276;6.472;2024-03-29T14:17:03;1.03;;;0.93;;
4810;SDS011;2419;51.276;6.472;2024-03-29T14:19:32;1.60;;;0.93;;
4810;SDS011;2419;51.276;6.472;2024-03-29T14:21:59;0.80;;;0.80;;
4810;SDS011;2419;51.276;6.472;2024-03-29T14:24:26;1.00;;;0.70;;
4810;SDS011;2419;51.276;6.472;2024-03-29T14:26:55;1.27;;;0.77;;
4810;SDS011;2419;51.276;6.472;2024-03-29T14:29:23;1.67;;;0.77;;
4810;SDS011;2419;51.276;6.472;2024-03-29T14:31:50;1.57;;;0.90;;
4810;SDS011;2419;51.276;6.472;2024-03-29T14:34:21;1.93;;;1.00;;
4810;SDS011;2419;51.276;6.472;2024-03-29T14:36:48;1.13;;;0.87;;
4810;SDS011;2419;51.276;6.472;2024-03-29T14:39:16;5.80;;;1.50;;
4810;SDS011;2419;51.276;6.472;2024-03-29T14:41:46;1.50;;;0.77;;
4810;SDS011;2419;51.276;6.472;2024-03-29T14:44:15;1.47;;;0.70;;
4810;SDS011;2419;51.276;6.472;2024-03-29T14:46:43;0.80;;;0.80;;
4810;SDS011;2419;51.276;6.472;2024-03-29T14:49:11;2.13;;;1.00;;
4810;SDS011;2419;51.276;6.472;2024-03-29T14:51:40;1.40;;;1.27;;
4810;SDS011;2419;51.276;6.472;2024-03-29T14:54:07;1.57;;;1.00;;
4810;SDS011;2419;51.276;6.472;2024-03-29T14:56:35;0.80;;;0.80;;
4810;SDS011;2419;51.276;6.472;2024-03-29T14:59:03;1.30;;;0.80;;
4810;SDS011;2419;51.276;6.472;2024-03-29T15:01:31;1.10;;;0.80;;
4810;SDS011;2419;51.276;6.472;2024-03-29T15:03:59;0.90;;;0.80;;
4810;SDS011;2419;51.276;6.472;2024-03-29T15:06:26;3.60;;;1.00;;
4810;SDS011;2419;51.276;6.472;2024-03-29T15:08:56;0.90;;;0.80;;
4810;SDS011;2419;51.276;6.472;2024-03-29T15:11:24;0.77;;;0.77;;
4810;SDS011;2419;51.276;6.472;2024-03-29T15:13:52;1.00;;;0.90;;
4810;SDS011;2419;51.276;6.472;2024-03-29T15:16:19;0.70;;;0.70;;
4810;SDS011;2419;51.276;6.472;2024-03-29T15:18:47;0.90;;;0.90;;